Hobbieville, Indiana
Current Conditions -  °F | °C
As of 2:53 PM on Monday 26 Jan 2015 (Local Time) from KBMG Reporting Station
Overcast Overcast  
Wind Chill: 22°   Ceiling: 1900
Heat Index: 29°   Visibility: 10mi
Dew Point: 22°   Wind: 7mph
Humidity: 75%   Direction: 260°W
Pressure: 29.9"   Gusts: NA
Location:  38.9483°N, 86.6278°W
Report Text: KBMG 261953Z 26006KT 10SM OVC019 M02/M06 A2990 RMK AO2 SLP135 T10171056
Loading
Personal Weather Stations






























Interactive Weather Map New forecast layout! Learn more

10-Day Weather Forecast

Advertisements
Track Severe Weather on mobile